Time;durP1;ratioP1;P1;durP2;ratioP2;P2;SDS_P1;SDS_P2;PMS_P1;PMS_P2;Temp;Humidity;BMP_temperature;BMP_pressure;BME280_temperature;BME280_humidity;BME280_pressure;Samples;Min_cycle;Max_cycle;Signal;HPM_P1;HPM_P2
2023/05/12 00:00:02;;;;;;;2.90;2.70;;;11.10;99.90;;;;;;5058245;28;20431;-82
2023/05/12 00:02:27;;;;;;;2.95;2.40;;;11.10;99.90;;;;;;5058338;28;20388;-82
2023/05/12 00:04:53;;;;;;;4.40;2.95;;;11.10;99.90;;;;;;5040495;28;20389;-82
2023/05/12 00:07:19;;;;;;;3.47;2.80;;;11.10;99.90;;;;;;5039347;28;20417;-83
2023/05/12 00:09:44;;;;;;;3.00;2.60;;;11.10;99.90;;;;;;5040516;28;20983;-82
2023/05/12 00:12:10;;;;;;;3.50;2.63;;;11.10;99.90;;;;;;5057933;28;20721;-82
2023/05/12 00:14:36;;;;;;;4.18;2.80;;;11.10;99.90;;;;;;5058383;28;20867;-83
2023/05/12 00:17:03;;;;;;;3.90;2.90;;;11.00;99.90;;;;;;5057111;28;20378;-82
2023/05/12 00:19:29;;;;;;;3.03;2.72;;;11.60;99.90;;;;;;5058531;28;20384;-82
2023/05/12 00:21:55;;;;;;;2.75;2.55;;;11.20;99.90;;;;;;5057942;28;20389;-82
2023/05/12 00:24:20;;;;;;;2.83;2.63;;;11.10;99.90;;;;;;5039450;28;20408;-83
2023/05/12 00:26:46;;;;;;;3.53;2.60;;;11.10;99.90;;;;;;5038645;28;20472;-81
2023/05/12 00:29:12;;;;;;;2.88;2.67;;;11.10;99.90;;;;;;5039990;28;20393;-82
2023/05/12 00:31:37;;;;;;;2.70;2.50;;;11.10;99.90;;;;;;5057480;28;20752;-82
2023/05/12 00:34:03;;;;;;;2.85;2.65;;;11.00;99.90;;;;;;5058479;28;20386;-82
2023/05/12 00:36:29;;;;;;;4.70;2.73;;;11.10;99.90;;;;;;5059658;28;20385;-81
2023/05/12 00:38:55;;;;;;;2.90;2.70;;;11.10;99.90;;;;;;5047294;28;20377;-82
2023/05/12 00:41:20;;;;;;;3.85;2.47;;;11.00;99.90;;;;;;5044444;28;20790;-82
2023/05/12 00:43:46;;;;;;;3.87;2.90;;;11.10;99.90;;;;;;5059019;28;20408;-82
2023/05/12 00:46:11;;;;;;;3.10;2.80;;;11.10;99.90;;;;;;5058669;28;20389;-82
2023/05/12 00:48:37;;;;;;;3.10;2.80;;;11.00;99.90;;;;;;5059148;28;20501;-81
2023/05/12 00:51:03;;;;;;;4.40;3.20;;;11.10;99.90;;;;;;5039938;28;20385;-81
2023/05/12 00:53:30;;;;;;;3.97;2.97;;;11.10;99.90;;;;;;5039624;28;20399;-82
2023/05/12 00:55:56;;;;;;;3.20;2.67;;;11.10;99.90;;;;;;5038556;28;20392;-82
2023/05/12 00:58:22;;;;;;;2.75;2.55;;;11.10;99.90;;;;;;5039198;28;20802;-82
2023/05/12 01:00:48;;;;;;;2.70;2.50;;;11.10;99.90;;;;;;5039426;28;20409;-82
2023/05/12 01:03:13;;;;;;;5.75;2.90;;;11.10;99.90;;;;;;5057892;28;20385;-83
2023/05/12 01:05:48;;;;;;;3.33;2.80;;;10.40;99.90;;;;;;5056977;28;20393;-80
2023/05/12 01:08:18;;;;;;;3.35;2.80;;;11.10;99.90;;;;;;5048925;28;20563;-81
2023/05/12 01:10:45;;;;;;;3.17;2.88;;;11.10;99.90;;;;;;5063976;28;20476;-82
2023/05/12 01:13:11;;;;;;;4.10;2.80;;;11.00;99.90;;;;;;5061900;28;20381;-81
2023/05/12 01:15:41;;;;;;;4.00;3.00;;;11.20;99.90;;;;;;5053538;28;20393;-80
2023/05/12 01:18:10;;;;;;;4.00;2.80;;;11.10;99.90;;;;;;5043914;28;20452;-82
2023/05/12 01:20:36;;;;;;;3.40;3.00;;;11.10;99.90;;;;;;5058509;28;20432;-81
2023/05/12 01:23:03;;;;;;;2.70;2.50;;;11.10;99.90;;;;;;5059093;28;20385;-82
2023/05/12 01:25:31;;;;;;;3.50;2.90;;;11.10;99.90;;;;;;5057797;28;20760;-82
2023/05/12 01:27:58;;;;;;;4.25;3.10;;;11.30;99.90;;;;;;5058112;28;20377;-82
2023/05/12 01:30:24;;;;;;;3.42;3.13;;;11.30;99.90;;;;;;5057869;28;20971;-82
2023/05/12 01:32:51;;;;;;;6.20;3.10;;;11.10;99.90;;;;;;5040143;28;20468;-82
2023/05/12 01:35:16;;;;;;;3.20;2.80;;;11.10;99.90;;;;;;5039154;28;20879;-80
2023/05/12 01:37:42;;;;;;;3.72;3.30;;;11.00;99.90;;;;;;5038333;28;20420;-82
2023/05/12 01:40:08;;;;;;;3.20;3.00;;;11.10;99.90;;;;;;5056538;28;20772;-82
2023/05/12 01:42:33;;;;;;;4.95;3.35;;;11.20;99.90;;;;;;5038795;28;20419;-82
2023/05/12 01:44:59;;;;;;;4.95;2.92;;;11.10;99.90;;;;;;5038532;28;20401;-82
2023/05/12 01:47:25;;;;;;;3.17;2.97;;;11.10;99.90;;;;;;5056281;28;20396;-82
2023/05/12 01:49:51;;;;;;;2.80;2.60;;;11.20;99.90;;;;;;5056118;28;20527;-82
2023/05/12 01:52:16;;;;;;;3.75;3.45;;;11.10;99.90;;;;;;5039596;28;20866;-81
2023/05/12 01:54:42;;;;;;;3.85;2.95;;;11.10;99.90;;;;;;5056194;28;20377;-82
2023/05/12 01:57:07;;;;;;;4.20;3.30;;;11.00;99.90;;;;;;5055382;28;20439;-82
2023/05/12 01:59:33;;;;;;;4.80;3.17;;;10.90;99.90;;;;;;5038814;28;20508;-82
2023/05/12 02:01:58;;;;;;;3.20;2.80;;;11.20;99.90;;;;;;5056160;28;20389;-81
2023/05/12 02:04:24;;;;;;;3.30;2.90;;;11.00;99.90;;;;;;5038709;28;20462;-82
2023/05/12 02:06:50;;;;;;;3.00;2.70;;;11.10;99.90;;;;;;5055145;28;20381;-81
2023/05/12 02:09:16;;;;;;;3.60;2.78;;;11.10;99.90;;;;;;5037863;28;20423;-81
2023/05/12 02:11:41;;;;;;;3.23;2.93;;;11.00;99.90;;;;;;5039736;28;20472;-81
2023/05/12 02:14:07;;;;;;;3.50;3.20;;;10.90;99.90;;;;;;5040018;28;20413;-82
2023/05/12 02:16:32;;;;;;;3.40;3.10;;;11.10;99.90;;;;;;5057300;28;20403;-82
2023/05/12 02:18:58;;;;;;;3.97;3.20;;;11.10;99.90;;;;;;5057102;28;20381;-82
2023/05/12 02:21:23;;;;;;;4.30;3.10;;;11.10;99.90;;;;;;5057506;28;20409;-82
2023/05/12 02:23:49;;;;;;;4.00;3.30;;;11.00;99.90;;;;;;5059833;28;20381;-81
2023/05/12 02:26:14;;;;;;;4.18;3.60;;;11.10;99.90;;;;;;5049051;28;20394;-81
2023/05/12 02:28:40;;;;;;;4.03;3.40;;;11.10;99.90;;;;;;5048067;28;20378;-80
2023/05/12 02:31:05;;;;;;;3.63;3.27;;;11.10;99.90;;;;;;5049832;28;20408;-81
2023/05/12 02:33:31;;;;;;;3.90;3.60;;;11.20;99.90;;;;;;5061024;28;20404;-82
2023/05/12 02:35:56;;;;;;;4.57;3.75;;;11.10;99.90;;;;;;5039109;28;20794;-82
2023/05/12 02:38:22;;;;;;;3.73;3.10;;;11.10;99.90;;;;;;5057946;28;20519;-81
2023/05/12 02:40:47;;;;;;;3.83;2.90;;;11.10;99.90;;;;;;5040176;28;20476;-82
2023/05/12 02:43:13;;;;;;;3.57;3.23;;;11.20;99.90;;;;;;5057652;28;20393;-83
2023/05/12 02:45:38;;;;;;;4.45;3.20;;;11.10;99.90;;;;;;5056996;28;20412;-82
2023/05/12 02:48:04;;;;;;;3.27;2.97;;;11.20;99.90;;;;;;5038863;28;20382;-82
2023/05/12 02:50:30;;;;;;;4.47;3.33;;;11.10;99.90;;;;;;5039052;28;20389;-82
2023/05/12 02:52:56;;;;;;;3.30;3.00;;;11.20;99.90;;;;;;5057462;28;20389;-82
2023/05/12 02:55:21;;;;;;;3.20;2.90;;;11.20;99.90;;;;;;5057202;28;20446;-82
2023/05/12 02:57:47;;;;;;;3.60;3.30;;;11.20;99.90;;;;;;5039189;28;20472;-82
2023/05/12 03:00:12;;;;;;;3.97;3.45;;;11.20;99.90;;;;;;5056968;28;20519;-82
2023/05/12 03:02:39;;;;;;;3.20;2.90;;;11.20;99.90;;;;;;5039654;28;20415;-82
2023/05/12 03:05:05;;;;;;;3.30;3.00;;;11.10;99.90;;;;;;5038803;28;20412;-82
2023/05/12 03:07:30;;;;;;;2.95;2.75;;;11.10;99.90;;;;;;5037878;28;20390;-82
2023/05/12 03:09:57;;;;;;;3.40;3.10;;;11.20;99.90;;;;;;5038114;28;20389;-82
2023/05/12 03:12:22;;;;;;;3.05;2.70;;;11.20;99.90;;;;;;5047469;28;20389;-82
2023/05/12 03:14:48;;;;;;;3.70;3.40;;;11.30;99.90;;;;;;5064947;28;20389;-82
2023/05/12 03:17:13;;;;;;;3.72;3.42;;;11.20;99.90;;;;;;5040857;28;20445;-81
2023/05/12 03:19:39;;;;;;;3.00;2.80;;;11.20;99.90;;;;;;5057630;28;20408;-82
2023/05/12 03:22:08;;;;;;;3.90;3.10;;;11.00;99.90;;;;;;5060680;28;20388;-82
2023/05/12 03:24:33;;;;;;;3.60;3.20;;;11.10;99.90;;;;;;5043020;28;20423;-82
2023/05/12 03:26:59;;;;;;;4.53;3.05;;;11.10;99.90;;;;;;5068663;28;20911;-81
2023/05/12 03:29:25;;;;;;;3.20;2.90;;;11.10;99.90;;;;;;5055385;28;20389;-80
2023/05/12 03:31:51;;;;;;;4.78;3.00;;;11.20;99.90;;;;;;5054599;28;20381;-81
2023/05/12 03:34:16;;;;;;;4.10;3.00;;;10.60;99.90;;;;;;5055565;28;20400;-80
2023/05/12 03:36:42;;;;;;;3.27;3.07;;;11.20;99.90;;;;;;5054822;28;20389;-81
2023/05/12 03:39:08;;;;;;;4.30;3.30;;;11.20;99.90;;;;;;5067678;28;20760;-82
2023/05/12 03:41:34;;;;;;;5.55;3.90;;;11.30;99.90;;;;;;5062588;28;20401;-82
2023/05/12 03:44:00;;;;;;;3.60;3.30;;;11.40;99.90;;;;;;5083554;22;20433;-79
2023/05/12 03:46:26;;;;;;;3.33;3.03;;;11.40;99.90;;;;;;5057804;28;20472;-79
2023/05/12 03:48:51;;;;;;;4.50;3.40;;;11.30;99.90;;;;;;5039370;28;20385;-79
2023/05/12 03:51:17;;;;;;;4.20;3.20;;;11.30;99.90;;;;;;5054600;28;20397;-78
2023/05/12 03:53:46;;;;;;;4.00;3.40;;;11.30;99.90;;;;;;5054957;28;20377;-79
2023/05/12 03:56:12;;;;;;;4.47;3.80;;;11.30;99.90;;;;;;5054443;28;20476;-79
2023/05/12 03:58:37;;;;;;;6.35;3.63;;;11.30;99.90;;;;;;5055737;28;20465;-78
2023/05/12 04:01:03;;;;;;;3.97;3.22;;;11.30;99.90;;;;;;5054910;28;20392;-79
2023/05/12 04:03:28;;;;;;;4.40;3.60;;;11.10;99.90;;;;;;5054423;28;20386;-79
2023/05/12 04:06:01;;;;;;;3.90;3.50;;;11.20;99.90;;;;;;5053411;28;20389;-79
2023/05/12 04:08:27;;;;;;;5.45;4.05;;;11.20;99.90;;;;;;5054255;28;20929;-79
2023/05/12 04:10:57;;;;;;;4.05;3.65;;;11.20;99.90;;;;;;5036270;28;20807;-78
2023/05/12 04:13:27;;;;;;;4.40;3.60;;;11.20;99.90;;;;;;5053579;28;20396;-80
2023/05/12 04:15:56;;;;;;;4.10;3.70;;;11.20;99.90;;;;;;5053227;28;20397;-79
2023/05/12 04:18:21;;;;;;;3.67;3.38;;;11.20;99.90;;;;;;5053934;28;20462;-79
2023/05/12 04:20:47;;;;;;;3.70;3.40;;;11.30;99.90;;;;;;5035732;28;20397;-79
2023/05/12 04:23:14;;;;;;;3.42;3.20;;;11.30;99.90;;;;;;5052730;28;20500;-79
2023/05/12 04:25:40;;;;;;;3.75;3.45;;;11.30;99.90;;;;;;5034289;28;20842;-78
2023/05/12 04:28:06;;;;;;;4.43;3.30;;;11.10;99.90;;;;;;5053581;28;20416;-79
2023/05/12 04:30:32;;;;;;;5.45;3.10;;;11.40;99.90;;;;;;5053790;28;20450;-79
2023/05/12 04:32:57;;;;;;;4.40;3.10;;;11.20;99.90;;;;;;5053193;28;20985;-79
2023/05/12 04:35:23;;;;;;;4.68;3.30;;;11.30;99.90;;;;;;5035543;28;20439;-79
2023/05/12 04:37:49;;;;;;;3.90;3.50;;;11.40;99.90;;;;;;5053572;28;20385;-79
2023/05/12 04:40:16;;;;;;;4.00;3.60;;;11.40;99.90;;;;;;5053023;28;21442;-79
2023/05/12 04:42:41;;;;;;;3.80;3.40;;;11.40;99.90;;;;;;5053481;28;20481;-79
2023/05/12 04:45:07;;;;;;;3.50;3.20;;;11.40;99.90;;;;;;5053189;28;20476;-79
2023/05/12 04:47:33;;;;;;;3.90;3.40;;;11.40;99.90;;;;;;5034813;28;20389;-79
2023/05/12 04:49:59;;;;;;;3.80;3.50;;;11.40;99.90;;;;;;5065102;28;20568;-79
2023/05/12 04:52:24;;;;;;;4.38;3.88;;;11.40;99.90;;;;;;5073051;28;20376;-79
2023/05/12 04:54:50;;;;;;;4.00;3.70;;;11.40;99.90;;;;;;5056844;28;20773;-79
2023/05/12 04:57:15;;;;;;;7.80;4.57;;;11.40;99.90;;;;;;5074915;28;20390;-79
2023/05/12 04:59:44;;;;;;;5.00;4.50;;;11.10;99.90;;;;;;5075931;28;20437;-79
2023/05/12 05:02:10;;;;;;;4.20;3.60;;;11.30;99.90;;;;;;5076559;28;20419;-79
2023/05/12 05:04:36;;;;;;;4.10;3.70;;;11.30;99.90;;;;;;5069808;28;20381;-79
2023/05/12 05:07:02;;;;;;;6.60;4.05;;;11.20;99.90;;;;;;5052510;28;20378;-77
2023/05/12 05:09:28;;;;;;;4.13;3.72;;;11.40;99.90;;;;;;5054375;28;20925;-79
2023/05/12 05:11:53;;;;;;;4.78;4.38;;;11.40;99.90;;;;;;5054617;28;20389;-79
2023/05/12 05:14:19;;;;;;;4.77;4.37;;;11.50;99.90;;;;;;5056730;28;20401;-79
2023/05/12 05:16:45;;;;;;;4.67;4.17;;;11.50;99.90;;;;;;5034092;28;20797;-79
2023/05/12 05:19:12;;;;;;;6.85;3.40;;;11.50;99.90;;;;;;5060479;28;20388;-79
2023/05/12 05:21:37;;;;;;;4.00;3.60;;;11.50;99.90;;;;;;5050885;28;20404;-79
2023/05/12 05:24:03;;;;;;;3.80;3.50;;;11.40;99.90;;;;;;5056270;28;20763;-79
2023/05/12 05:26:29;;;;;;;3.67;3.20;;;11.40;99.90;;;;;;5057880;28;20427;-78
2023/05/12 05:28:54;;;;;;;3.90;3.60;;;11.50;99.90;;;;;;5059438;28;20378;-79
2023/05/12 05:31:20;;;;;;;6.30;3.50;;;11.50;99.90;;;;;;5039751;28;20420;-79
2023/05/12 05:33:46;;;;;;;3.97;3.67;;;11.50;99.90;;;;;;5034597;28;20390;-78
2023/05/12 05:36:12;;;;;;;6.80;3.28;;;11.60;99.90;;;;;;5053961;28;20386;-79
2023/05/12 05:38:38;;;;;;;3.53;3.22;;;11.50;99.90;;;;;;5052554;28;20388;-79
2023/05/12 05:41:04;;;;;;;3.17;2.70;;;11.50;99.90;;;;;;5053335;28;20799;-79
2023/05/12 05:43:30;;;;;;;4.25;3.40;;;11.50;99.90;;;;;;5036476;28;20401;-79
2023/05/12 05:45:57;;;;;;;3.42;3.13;;;11.50;99.90;;;;;;5051110;28;20384;-78
2023/05/12 05:48:23;;;;;;;4.20;3.00;;;11.70;99.90;;;;;;5034696;28;20386;-79
2023/05/12 05:50:50;;;;;;;3.50;3.20;;;11.70;99.90;;;;;;5052826;28;20390;-79
2023/05/12 05:53:19;;;;;;;4.70;3.30;;;11.70;99.90;;;;;;5052178;28;20381;-78
2023/05/12 05:55:47;;;;;;;3.40;3.10;;;11.60;99.90;;;;;;5049536;28;20395;-79
2023/05/12 05:58:14;;;;;;;3.85;3.47;;;11.80;99.90;;;;;;5032970;28;20393;-78
2023/05/12 06:00:39;;;;;;;3.92;3.45;;;11.80;99.90;;;;;;5033590;28;20416;-78
2023/05/12 06:03:05;;;;;;;3.10;2.80;;;11.80;99.90;;;;;;5051700;28;20386;-79
2023/05/12 06:05:30;;;;;;;3.10;2.90;;;11.80;99.90;;;;;;5051331;28;20396;-79
2023/05/12 06:07:56;;;;;;;4.50;3.40;;;11.70;99.90;;;;;;5052039;28;20436;-78
2023/05/12 06:10:21;;;;;;;4.50;3.50;;;12.00;99.90;;;;;;5051762;28;20389;-79
2023/05/12 06:12:47;;;;;;;3.28;3.03;;;11.70;99.90;;;;;;5051159;28;20385;-79
2023/05/12 06:15:13;;;;;;;3.65;3.35;;;12.10;99.90;;;;;;5053209;28;20390;-77
2023/05/12 06:17:38;;;;;;;3.30;3.00;;;12.20;99.90;;;;;;5033090;28;20474;-78
2023/05/12 06:20:05;;;;;;;3.93;3.30;;;12.30;99.90;;;;;;5051565;28;20968;-79
2023/05/12 06:22:32;;;;;;;5.00;3.10;;;12.40;99.90;;;;;;5033626;28;20381;-79
2023/05/12 06:24:57;;;;;;;5.57;3.50;;;12.40;99.90;;;;;;5052072;28;20384;-79
2023/05/12 06:27:23;;;;;;;4.97;3.40;;;12.50;99.90;;;;;;5050312;28;20389;-79
2023/05/12 06:29:50;;;;;;;4.10;3.40;;;12.50;99.90;;;;;;5050963;28;20418;-78
2023/05/12 06:32:15;;;;;;;3.40;3.10;;;12.60;99.90;;;;;;5051132;28;20940;-79
2023/05/12 06:34:41;;;;;;;4.40;3.77;;;12.50;99.90;;;;;;5033228;28;20473;-79
2023/05/12 06:37:06;;;;;;;3.65;3.25;;;12.60;99.90;;;;;;5050601;28;20799;-79
2023/05/12 06:39:32;;;;;;;4.70;3.80;;;12.60;99.90;;;;;;5033334;28;20451;-78
2023/05/12 06:41:57;;;;;;;5.10;3.60;;;12.50;99.90;;;;;;5050769;28;20913;-79
2023/05/12 06:44:23;;;;;;;5.70;3.53;;;12.50;99.90;;;;;;5051013;28;20497;-78
2023/05/12 06:46:48;;;;;;;3.70;3.40;;;12.70;99.90;;;;;;5050611;28;20396;-79
2023/05/12 06:49:14;;;;;;;3.87;3.53;;;12.60;99.90;;;;;;5051524;28;20381;-79
2023/05/12 06:51:39;;;;;;;3.90;3.60;;;12.60;99.90;;;;;;5033409;28;20481;-79
2023/05/12 06:54:05;;;;;;;5.32;4.10;;;12.50;99.90;;;;;;5032337;28;20393;-79
2023/05/12 06:56:30;;;;;;;5.83;4.00;;;12.60;99.90;;;;;;5041221;28;20458;-79
2023/05/12 06:59:01;;;;;;;8.60;5.80;;;12.80;99.90;;;;;;5037221;28;20468;-79
2023/05/12 07:01:27;;;;;;;7.35;6.45;;;12.70;99.90;;;;;;5054886;28;20416;-79
2023/05/12 07:03:53;;;;;;;7.72;6.93;;;12.90;99.90;;;;;;5054990;28;20377;-78
2023/05/12 07:06:20;;;;;;;7.88;6.40;;;12.90;99.90;;;;;;5036429;28;20795;-79
2023/05/12 07:08:45;;;;;;;8.50;6.13;;;12.80;99.90;;;;;;5055204;28;20458;-78
2023/05/12 07:11:11;;;;;;;6.85;6.15;;;12.90;99.90;;;;;;5054067;28;20895;-79
2023/05/12 07:13:37;;;;;;;7.43;6.80;;;12.70;99.90;;;;;;5035831;28;20401;-77
2023/05/12 07:16:03;;;;;;;9.02;6.80;;;12.90;99.90;;;;;;5052816;28;20842;-77
2023/05/12 07:18:29;;;;;;;8.90;7.43;;;12.90;99.90;;;;;;5053468;28;20393;-77
2023/05/12 07:20:55;;;;;;;7.50;6.40;;;12.90;99.90;;;;;;5055870;28;20424;-81
2023/05/12 07:23:21;;;;;;;7.50;6.80;;;12.40;99.90;;;;;;5055648;28;20464;-78
2023/05/12 07:25:46;;;;;;;10.57;6.90;;;13.00;99.90;;;;;;5037327;28;20805;-77
2023/05/12 07:28:12;;;;;;;7.35;6.65;;;13.20;99.90;;;;;;5056559;28;20389;-76
2023/05/12 07:30:38;;;;;;;7.53;6.78;;;12.90;99.90;;;;;;5058002;28;20407;-77
2023/05/12 07:33:04;;;;;;;7.55;6.85;;;13.00;99.90;;;;;;5036792;28;20385;-77
2023/05/12 07:35:29;;;;;;;7.60;6.90;;;13.10;99.90;;;;;;5052915;28;20903;-77
2023/05/12 07:37:55;;;;;;;7.65;6.95;;;13.30;99.90;;;;;;5036349;28;20472;-78
2023/05/12 07:40:21;;;;;;;8.18;7.38;;;13.20;99.90;;;;;;5053569;28;20573;-78
2023/05/12 07:42:47;;;;;;;8.80;7.90;;;13.10;99.90;;;;;;5053929;28;20751;-77
2023/05/12 07:45:12;;;;;;;8.40;7.15;;;13.20;99.90;;;;;;5053693;28;20397;-79
2023/05/12 07:47:38;;;;;;;9.37;8.40;;;13.30;99.90;;;;;;5053022;28;20463;-79
2023/05/12 07:50:05;;;;;;;8.80;7.80;;;13.50;99.90;;;;;;5036176;28;20386;-79
2023/05/12 07:52:31;;;;;;;8.75;7.85;;;13.70;99.90;;;;;;5035962;28;20390;-79
2023/05/12 07:54:57;;;;;;;9.00;8.07;;;13.50;99.90;;;;;;5053710;28;20443;-79
2023/05/12 07:57:23;;;;;;;8.03;7.23;;;13.40;99.90;;;;;;5035121;28;20392;-80
2023/05/12 07:59:48;;;;;;;8.95;8.10;;;13.00;99.90;;;;;;5054684;28;20408;-80
2023/05/12 08:02:16;;;;;;;8.53;7.73;;;13.70;99.90;;;;;;5036727;28;20436;-79
2023/05/12 08:04:41;;;;;;;8.27;7.43;;;13.70;99.90;;;;;;5053991;28;20385;-79
2023/05/12 08:07:07;;;;;;;8.90;8.00;;;13.60;99.90;;;;;;5034804;28;20860;-78
2023/05/12 08:09:33;;;;;;;9.57;8.40;;;13.60;99.90;;;;;;5058831;28;20451;-77
2023/05/12 08:11:58;;;;;;;9.33;8.43;;;13.90;99.90;;;;;;5040586;28;20396;-78
2023/05/12 08:14:24;;;;;;;9.53;8.63;;;13.70;99.90;;;;;;5058652;28;20484;-77
2023/05/12 08:16:50;;;;;;;10.35;7.80;;;13.80;99.90;;;;;;5056161;28;20394;-80
2023/05/12 08:19:15;;;;;;;10.52;8.80;;;13.60;99.90;;;;;;5053341;28;20389;-80
2023/05/12 08:21:41;;;;;;;8.57;7.50;;;14.10;99.90;;;;;;5035185;28;20402;-80
2023/05/12 08:24:07;;;;;;;8.70;7.80;;;14.10;99.90;;;;;;5053167;28;20385;-79
2023/05/12 08:26:32;;;;;;;7.97;7.17;;;13.70;99.90;;;;;;5052116;28;20436;-79
2023/05/12 08:28:58;;;;;;;8.83;7.80;;;13.60;99.90;;;;;;5053623;28;20890;-79
2023/05/12 08:31:23;;;;;;;9.00;7.85;;;14.10;99.90;;;;;;5053681;28;20381;-79
2023/05/12 08:33:49;;;;;;;8.83;8.00;;;13.70;99.90;;;;;;5053945;28;21014;-79
2023/05/12 08:36:14;;;;;;;10.43;8.80;;;14.00;99.90;;;;;;5035501;28;20394;-80
2023/05/12 08:38:40;;;;;;;8.27;7.47;;;14.10;99.90;;;;;;5035182;28;20424;-80
2023/05/12 08:41:23;;;;;;;9.90;8.90;;;14.00;99.90;;;;;;5035789;28;20406;-80
2023/05/12 08:43:50;;;;;;;8.63;7.72;;;14.20;99.90;;;;;;5053585;28;20470;-80
2023/05/12 08:46:16;;;;;;;8.65;7.75;;;14.20;99.90;;;;;;5057685;28;20886;-82
2023/05/12 08:48:48;;;;;;;7.70;6.80;;;14.40;99.90;;;;;;5061445;28;20389;-83
2023/05/12 08:51:15;;;;;;;7.80;7.00;;;14.50;99.90;;;;;;5060224;28;20417;-83
2023/05/12 08:53:41;;;;;;;6.75;6.00;;;14.60;99.90;;;;;;5042113;28;20966;-84
2023/05/12 08:56:09;;;;;;;6.50;5.90;;;14.20;99.90;;;;;;5044549;28;20387;-84
2023/05/12 08:58:35;;;;;;;6.22;5.63;;;14.30;99.90;;;;;;5036499;28;20388;-81
2023/05/12 09:01:06;;;;;;;5.88;5.28;;;14.60;99.90;;;;;;5038447;28;20783;-82
2023/05/12 09:03:33;;;;;;;7.43;6.10;;;14.60;99.90;;;;;;5050737;28;20402;-84
2023/05/12 09:05:59;;;;;;;7.20;5.80;;;14.70;99.90;;;;;;5054801;28;20833;-83
2023/05/12 09:08:27;;;;;;;6.22;5.63;;;14.90;99.90;;;;;;5055147;28;20378;-81
2023/05/12 09:10:57;;;;;;;6.85;5.25;;;14.90;99.90;;;;;;5054873;28;20398;-81
2023/05/12 09:13:32;;;;;;;6.65;6.05;;;14.80;99.90;;;;;;5054505;28;20392;-82
2023/05/12 09:16:00;;;;;;;6.00;5.40;;;14.70;99.90;;;;;;5035722;28;20387;-82
2023/05/12 09:18:51;;;;;;;7.22;6.53;;;14.30;99.90;;;;;;5054697;28;20386;-82
2023/05/12 09:21:17;;;;;;;8.30;7.50;;;14.70;99.90;;;;;;5045213;28;20401;-80
2023/05/12 09:23:56;;;;;;;11.27;8.18;;;14.60;99.90;;;;;;5054473;28;20384;-82
2023/05/12 09:26:23;;;;;;;9.30;8.40;;;14.10;99.90;;;;;;5053530;28;20385;-81
2023/05/12 09:28:49;;;;;;;10.88;9.23;;;14.10;99.90;;;;;;5054007;28;20851;-82
2023/05/12 09:31:15;;;;;;;11.40;9.60;;;14.00;99.90;;;;;;5036075;28;20385;-82
2023/05/12 09:33:40;;;;;;;12.18;10.88;;;14.00;99.90;;;;;;5054095;28;20829;-81
2023/05/12 09:36:06;;;;;;;12.13;10.90;;;13.90;99.90;;;;;;5053372;28;20443;-83
2023/05/12 09:38:31;;;;;;;12.50;10.50;;;13.90;99.90;;;;;;5054106;28;20393;-82
2023/05/12 09:40:57;;;;;;;12.25;11.00;;;13.80;99.90;;;;;;5035455;28;20780;-80
2023/05/12 09:43:23;;;;;;;11.52;10.30;;;14.00;99.90;;;;;;5053409;28;20381;-82
2023/05/12 09:45:49;;;;;;;11.17;9.97;;;13.60;99.90;;;;;;5072475;22;20969;-88
2023/05/12 09:48:15;;;;;;;9.82;8.27;;;16.00;99.90;;;;;;5074754;28;20404;-81
2023/05/12 09:50:49;;;;;;;8.90;8.00;;;14.10;99.90;;;;;;5056837;28;20384;-81
2023/05/12 09:53:16;;;;;;;9.00;8.10;;;14.20;99.90;;;;;;5075615;28;20410;-81
2023/05/12 09:55:45;;;;;;;8.50;7.70;;;14.10;99.90;;;;;;5056590;28;20407;-81
2023/05/12 09:58:14;;;;;;;7.57;6.88;;;14.20;99.90;;;;;;5075344;28;20419;-81
2023/05/12 10:00:40;;;;;;;7.47;6.70;;;14.60;99.90;;;;;;5075429;28;20923;-82
2023/05/12 10:03:14;;;;;;;7.63;6.80;;;13.60;99.90;;;;;;5057589;28;20388;-82
2023/05/12 10:05:57;;;;;;;7.43;6.50;;;14.90;99.90;;;;;;5056904;28;20398;-83
2023/05/12 10:08:41;;;;;;;6.00;5.40;;;14.60;99.90;;;;;;5075874;28;20391;-81
2023/05/12 10:11:07;;;;;;;6.30;5.70;;;15.80;99.90;;;;;;5056775;28;20489;-82
2023/05/12 10:13:33;;;;;;;6.50;5.90;;;14.90;91.40;;;;;;5062744;28;21054;-82
2023/05/12 10:15:59;;;;;;;6.30;5.33;;;15.70;99.90;;;;;;5073949;28;20434;-82
2023/05/12 10:18:25;;;;;;;5.57;5.07;;;15.40;99.90;;;;;;5056979;28;20754;-82
2023/05/12 10:20:52;;;;;;;6.78;5.20;;;15.60;99.90;;;;;;5057157;28;20395;-82
2023/05/12 10:23:18;;;;;;;6.63;5.20;;;15.60;99.90;;;;;;5057163;28;20392;-82
2023/05/12 10:25:44;;;;;;;5.20;4.70;;;15.60;99.90;;;;;;5068987;28;20384;-83
2023/05/12 10:28:10;;;;;;;5.27;4.77;;;16.10;99.90;;;;;;5074611;28;20388;-83
2023/05/12 10:30:40;;;;;;;4.75;4.20;;;15.70;94.80;;;;;;5072313;28;20376;-82
2023/05/12 10:33:10;;;;;;;4.40;4.00;;;16.00;99.90;;;;;;5080256;28;20383;-82
2023/05/12 10:35:37;;;;;;;4.63;4.10;;;16.40;68.70;;;;;;5063146;28;20444;-81
2023/05/12 10:38:10;;;;;;;4.53;4.13;;;16.40;83.00;;;;;;5064716;28;20376;-81
2023/05/12 10:41:00;;;;;;;4.65;4.22;;;16.00;99.90;;;;;;5082652;28;20478;-81
2023/05/12 10:43:28;;;;;;;5.00;4.50;;;16.00;87.90;;;;;;5060245;28;20384;-82
2023/05/12 10:46:20;;;;;;;5.93;5.40;;;15.40;99.90;;;;;;5061201;28;20387;-81
2023/05/12 10:49:18;;;;;;;5.90;5.40;;;15.60;99.90;;;;;;5062030;28;20396;-81
2023/05/12 10:51:44;;;;;;;6.60;6.00;;;15.50;99.90;;;;;;5062038;28;20496;-81
2023/05/12 10:54:11;;;;;;;6.77;6.07;;;15.30;99.90;;;;;;5079610;28;20391;-81
2023/05/12 10:56:37;;;;;;;7.30;6.60;;;15.30;99.90;;;;;;5080729;28;20387;-82
2023/05/12 10:59:16;;;;;;;7.27;6.57;;;15.40;99.90;;;;;;5062011;28;20491;-81
2023/05/12 11:02:04;;;;;;;7.05;6.35;;;15.30;99.90;;;;;;5062064;28;20843;-81
2023/05/12 11:04:44;;;;;;;6.60;6.00;;;15.50;99.90;;;;;;5057644;28;20400;-82
2023/05/12 11:07:11;;;;;;;6.60;5.97;;;15.50;99.90;;;;;;5057721;28;20385;-82
2023/05/12 11:09:39;;;;;;;6.20;5.60;;;16.40;99.90;;;;;;5059058;28;20389;-82
2023/05/12 11:12:06;;;;;;;5.90;5.22;;;15.50;98.60;;;;;;5063324;28;20385;-81
2023/05/12 11:14:33;;;;;;;6.20;5.70;;;16.10;98.70;;;;;;5070518;28;20481;-81
2023/05/12 11:16:59;;;;;;;6.10;5.40;;;15.70;99.90;;;;;;5070074;28;20396;-82
2023/05/12 11:19:25;;;;;;;4.93;4.45;;;15.50;99.90;;;;;;5062439;28;20382;-83
2023/05/12 11:21:50;;;;;;;5.10;4.50;;;16.20;99.90;;;;;;5059338;28;20547;-82
2023/05/12 11:24:16;;;;;;;5.17;4.77;;;16.40;99.90;;;;;;5059288;28;20616;-82
2023/05/12 11:26:42;;;;;;;5.40;4.90;;;16.40;99.90;;;;;;5059931;28;20380;-82
2023/05/12 11:29:07;;;;;;;5.10;4.60;;;16.30;99.90;;;;;;5059483;28;20794;-81
2023/05/12 11:31:33;;;;;;;5.30;4.80;;;16.10;89.70;;;;;;5064493;28;20391;-83
2023/05/12 11:34:06;;;;;;;5.50;5.00;;;16.40;99.90;;;;;;5073660;28;20398;-84
2023/05/12 11:36:41;;;;;;;4.70;4.30;;;16.40;94.70;;;;;;5061855;28;20917;-83
2023/05/12 11:39:11;;;;;;;4.30;3.90;;;16.80;66.90;;;;;;5060324;28;20462;-84
2023/05/12 11:41:37;;;;;;;4.10;3.70;;;16.70;95.50;;;;;;5056614;28;20400;-84
2023/05/12 11:44:18;;;;;;;4.25;3.92;;;16.70;99.90;;;;;;5062278;28;20395;-83
2023/05/12 11:47:00;;;;;;;6.47;4.00;;;17.30;53.60;;;;;;5061117;28;20458;-84
2023/05/12 11:49:28;;;;;;;4.03;3.63;;;17.60;46.60;;;;;;5077691;28;20435;-83
2023/05/12 11:51:55;;;;;;;3.28;2.97;;;17.50;30.80;;;;;;5058649;28;20387;-82
2023/05/12 11:54:21;;;;;;;2.90;2.70;;;18.10;32.30;;;;;;5044933;28;20461;-82
2023/05/12 11:56:49;;;;;;;3.43;2.63;;;20.50;17.50;;;;;;5045973;28;20397;-83
2023/05/12 11:59:26;;;;;;;4.33;2.60;;;19.20;3.30;;;;;;5053870;28;20400;-84
2023/05/12 12:01:52;;;;;;;2.50;2.30;;;19.50;6.30;;;;;;5057855;28;20416;-84
2023/05/12 12:04:17;;;;;;;3.10;2.80;;;23.70;1.00;;;;;;5052379;28;20814;-84
2023/05/12 12:06:44;;;;;;;3.90;3.60;;;22.10;1.00;;;;;;5059886;28;20384;-83
2023/05/12 12:09:11;;;;;;;3.80;3.30;;;22.90;1.00;;;;;;5060448;28;20860;-83
2023/05/12 12:11:36;;;;;;;3.55;3.35;;;19.90;1.00;;;;;;5084629;28;20749;-82
2023/05/12 12:14:02;;;;;;;3.20;3.00;;;20.30;1.00;;;;;;5068149;28;20392;-83
2023/05/12 12:16:30;;;;;;;2.80;2.60;;;17.60;1.00;;;;;;5066170;28;20385;-84
2023/05/12 12:18:57;;;;;;;3.22;3.03;;;17.60;1.00;;;;;;5046494;28;20396;-83
2023/05/12 12:21:25;;;;;;;3.40;3.10;;;19.30;1.00;;;;;;5049704;28;20395;-82
2023/05/12 12:23:51;;;;;;;4.40;3.33;;;16.90;2.50;;;;;;5049355;28;20395;-83
2023/05/12 12:26:19;;;;;;;4.40;3.60;;;15.60;18.40;;;;;;5038666;28;20389;-83
2023/05/12 12:28:46;;;;;;;5.55;3.40;;;18.10;45.10;;;;;;5056709;28;20903;-83
2023/05/12 12:31:12;;;;;;;3.10;2.90;;;16.40;92.30;;;;;;5063053;28;20395;-82
2023/05/12 12:33:38;;;;;;;3.80;3.50;;;16.50;99.90;;;;;;5058032;28;20452;-83
2023/05/12 12:36:04;;;;;;;3.60;3.30;;;15.90;99.90;;;;;;5075486;28;20391;-82
2023/05/12 12:38:30;;;;;;;4.60;4.00;;;16.50;99.90;;;;;;5059014;28;20431;-82
2023/05/12 12:40:55;;;;;;;3.53;3.20;;;16.40;99.90;;;;;;5058306;28;20399;-82
2023/05/12 12:43:21;;;;;;;4.00;3.70;;;16.40;99.90;;;;;;5058557;28;20418;-82